createdAt,value
2019-01-30T00:03:38.935Z,-0.63
2019-01-30T00:07:49.109Z,-0.66
2019-01-30T00:11:59.576Z,-0.57
2019-01-30T00:16:08.253Z,-0.65
2019-01-30T00:20:15.238Z,-0.61
2019-01-30T00:24:22.941Z,-0.62
2019-01-30T00:28:29.805Z,-0.54
2019-01-30T00:32:36.802Z,-0.64
2019-01-30T00:36:43.682Z,-0.61
2019-01-30T00:40:50.570Z,-0.62
2019-01-30T00:44:57.495Z,-0.67
2019-01-30T00:49:04.435Z,-0.68
2019-01-30T00:53:11.461Z,-0.75
2019-01-30T00:57:18.399Z,-0.61
2019-01-30T01:01:25.267Z,-0.70
2019-01-30T01:05:32.513Z,-0.72
2019-01-30T01:09:39.386Z,-0.75
2019-01-30T01:13:46.271Z,-0.78
2019-01-30T01:17:53.292Z,-0.75
2019-01-30T01:22:00.173Z,-0.80
2019-01-30T01:26:07.051Z,-0.73
2019-01-30T01:30:24.894Z,-0.74
2019-01-30T01:34:28.496Z,-0.72
2019-01-30T01:38:35.332Z,-0.70
2019-01-30T01:42:42.298Z,-0.74
2019-01-30T01:46:49.234Z,-0.73
2019-01-30T01:50:56.163Z,-0.75
2019-01-30T01:55:03.014Z,-0.76
2019-01-30T01:59:09.867Z,-0.81
2019-01-30T02:03:16.957Z,-0.79
2019-01-30T02:07:23.800Z,-0.79
2019-01-30T02:11:30.730Z,-0.81
2019-01-30T02:15:37.698Z,-0.81
2019-01-30T02:19:44.505Z,-0.77
2019-01-30T02:23:51.382Z,-0.83
2019-01-30T02:27:59.320Z,-0.81
2019-01-30T02:32:06.257Z,-0.85
2019-01-30T02:36:13.203Z,-0.86
2019-01-30T02:40:20.730Z,-0.83
2019-01-30T02:44:28.030Z,-0.83
2019-01-30T02:48:34.959Z,-0.82
2019-01-30T02:52:41.807Z,-0.77
2019-01-30T02:56:48.680Z,-0.80
2019-01-30T03:00:59.301Z,-0.73
2019-01-30T03:05:05.492Z,-0.68
2019-01-30T03:09:12.459Z,-0.71
2019-01-30T03:13:19.301Z,-0.65
2019-01-30T03:17:26.309Z,-0.58
2019-01-30T03:21:33.172Z,-0.57
2019-01-30T03:25:40.058Z,-0.52
2019-01-30T03:29:46.947Z,-0.43
2019-01-30T03:33:53.850Z,-0.45
2019-01-30T03:38:00.840Z,-0.41
2019-01-30T03:42:07.745Z,-0.42
2019-01-30T03:46:14.580Z,-0.45
2019-01-30T03:50:21.544Z,-0.35
2019-01-30T03:54:28.405Z,-0.31
2019-01-30T03:58:35.291Z,-0.25
2019-01-30T04:02:42.173Z,-0.30
2019-01-30T04:06:48.957Z,-0.27
2019-01-30T04:10:55.882Z,-0.13
2019-01-30T04:15:02.757Z,0.00
2019-01-30T04:19:09.739Z,-0.15
2019-01-30T04:23:16.590Z,-0.12
2019-01-30T04:27:23.465Z,-0.05
2019-01-30T04:31:37.874Z,-0.07
2019-01-30T04:35:38.860Z,-0.05
2019-01-30T04:39:48.251Z,-0.01
2019-01-30T04:43:58.564Z,-0.06
2019-01-30T04:48:05.539Z,-0.06
2019-01-30T04:52:24.274Z,-0.10
2019-01-30T04:56:31.089Z,0.07
2019-01-30T05:00:37.902Z,-0.12
2019-01-30T05:04:44.776Z,-0.08
2019-01-30T05:08:51.752Z,-0.05
2019-01-30T05:12:58.635Z,0.02
2019-01-30T05:17:05.407Z,0.13
2019-01-30T05:21:12.368Z,0.02
2019-01-30T05:25:19.807Z,0.08
2019-01-30T05:29:27.806Z,0.06
2019-01-30T05:33:34.710Z,0.08
2019-01-30T05:37:41.841Z,0.07
2019-01-30T05:41:48.734Z,0.12
2019-01-30T05:45:55.553Z,0.09
2019-01-30T05:50:02.514Z,0.06
2019-01-30T05:54:09.355Z,0.05
2019-01-30T05:58:16.246Z,0.12
2019-01-30T06:02:23.178Z,0.13
2019-01-30T06:06:30.103Z,0.18
2019-01-30T06:10:37.124Z,0.29
2019-01-30T06:14:44.185Z,0.15
2019-01-30T06:18:51.160Z,0.07
2019-01-30T06:23:01.508Z,0.09
2019-01-30T06:27:07.062Z,0.13
2019-01-30T06:31:13.995Z,0.15
2019-01-30T06:35:20.884Z,0.21
2019-01-30T06:39:27.763Z,0.18
2019-01-30T06:43:34.624Z,0.10
2019-01-30T06:47:48.534Z,-0.05
2019-01-30T06:51:55.516Z,-0.15
2019-01-30T06:56:02.466Z,-0.30
2019-01-30T07:00:19.925Z,-0.17
2019-01-30T07:04:26.758Z,-0.28
2019-01-30T07:08:33.652Z,-0.40
2019-01-30T07:12:40.497Z,-0.36
2019-01-30T07:16:47.383Z,-0.36
2019-01-30T07:20:54.300Z,0.05
2019-01-30T07:25:01.293Z,-0.42
2019-01-30T07:29:08.203Z,-0.33
2019-01-30T07:33:15.040Z,-0.50
2019-01-30T07:37:21.855Z,-0.66
2019-01-30T07:41:28.771Z,-0.80
2019-01-30T07:45:35.762Z,-0.87
2019-01-30T07:49:42.709Z,-0.87
2019-01-30T07:53:49.653Z,-0.79
2019-01-30T07:57:56.726Z,-0.69
2019-01-30T08:02:03.686Z,-0.83
2019-01-30T08:06:10.569Z,-0.81
2019-01-30T08:10:17.593Z,-0.83
2019-01-30T08:14:24.732Z,-0.82
2019-01-30T08:18:31.569Z,-0.82
2019-01-30T08:22:40.976Z,-0.64
2019-01-30T08:26:47.227Z,-0.61
2019-01-30T08:30:55.199Z,-0.61
2019-01-30T08:35:02.365Z,-0.55
2019-01-30T08:39:10.097Z,-0.51
2019-01-30T08:43:17.024Z,-0.55
2019-01-30T08:47:24.060Z,-0.47
2019-01-30T08:51:31.080Z,-0.24
2019-01-30T08:55:37.975Z,-0.25
2019-01-30T08:59:44.938Z,-0.36
2019-01-30T09:03:52.037Z,-0.32
2019-01-30T09:07:59.153Z,-0.33
2019-01-30T09:12:06.393Z,-0.23
2019-01-30T09:16:14.467Z,-0.23
2019-01-30T09:20:24.397Z,-0.18
2019-01-30T09:24:31.463Z,-0.14
2019-01-30T09:28:38.622Z,-0.11
2019-01-30T09:32:45.715Z,-0.11
2019-01-30T09:36:52.598Z,0.06
2019-01-30T09:40:59.527Z,0.02
2019-01-30T09:45:09.990Z,0.16
2019-01-30T09:49:17.269Z,0.22
2019-01-30T09:53:26.673Z,0.23
2019-01-30T09:57:33.869Z,0.16
2019-01-30T10:01:40.921Z,0.28
2019-01-30T10:05:47.782Z,0.43
2019-01-30T10:09:54.836Z,0.34
2019-01-30T10:14:01.871Z,0.45
2019-01-30T10:18:10.341Z,0.56
2019-01-30T10:22:17.327Z,0.68
2019-01-30T10:26:24.342Z,0.78
2019-01-30T10:30:37.331Z,0.65
2019-01-30T10:34:44.546Z,0.75
2019-01-30T10:38:51.421Z,0.83
2019-01-30T10:42:58.841Z,0.89
2019-01-30T10:47:05.945Z,1.00
2019-01-30T10:51:13.272Z,1.10
2019-01-30T10:55:23.494Z,1.09
2019-01-30T10:59:31.272Z,1.18
2019-01-30T11:03:38.331Z,1.28
2019-01-30T11:07:45.692Z,1.35
2019-01-30T11:11:52.546Z,1.33
2019-01-30T11:16:01.314Z,1.47
2019-01-30T11:20:10.870Z,1.54
2019-01-30T11:24:17.908Z,1.63
2019-01-30T11:28:24.804Z,1.60
2019-01-30T11:32:34.725Z,1.68
2019-01-30T11:36:41.765Z,1.79
2019-01-30T11:40:48.847Z,1.82
2019-01-30T11:44:55.727Z,1.83
2019-01-30T11:49:02.717Z,1.90
2019-01-30T11:53:09.773Z,2.03
2019-01-30T11:57:16.701Z,2.02
2019-01-30T12:01:23.798Z,2.00
2019-01-30T12:05:30.736Z,2.17
2019-01-30T12:09:37.565Z,2.05
2019-01-30T12:13:44.857Z,2.11
2019-01-30T12:17:52.185Z,2.15
2019-01-30T12:21:59.453Z,2.18
2019-01-30T12:26:07.506Z,2.07
2019-01-30T12:30:21.687Z,2.16
2019-01-30T12:34:28.957Z,2.16
2019-01-30T12:38:35.888Z,2.21
2019-01-30T12:42:43.546Z,2.21
2019-01-30T12:46:50.578Z,2.11
2019-01-30T12:50:57.769Z,2.12
2019-01-30T12:55:05.791Z,2.23
2019-01-30T12:59:13.014Z,2.24
2019-01-30T13:03:20.142Z,2.34
2019-01-30T13:07:27.298Z,2.34
2019-01-30T13:11:34.394Z,2.46
2019-01-30T13:15:41.638Z,2.46
2019-01-30T13:19:48.883Z,2.51
2019-01-30T13:23:55.940Z,2.49
2019-01-30T13:28:03.369Z,2.46
2019-01-30T13:32:10.564Z,2.52
2019-01-30T13:36:18.239Z,2.63
2019-01-30T13:40:32.169Z,2.68
2019-01-30T13:44:39.166Z,2.68
2019-01-30T13:48:46.581Z,2.76
2019-01-30T13:52:53.822Z,2.74
2019-01-30T13:57:00.980Z,2.88
2019-01-30T14:01:17.640Z,2.97
2019-01-30T14:05:20.063Z,2.96
2019-01-30T14:09:27.000Z,3.03
2019-01-30T14:13:34.083Z,3.02
2019-01-30T14:17:41.211Z,2.97
2019-01-30T14:21:48.354Z,3.04
2019-01-30T14:25:55.459Z,2.83
2019-01-30T14:30:02.742Z,2.81
2019-01-30T14:34:09.722Z,2.72
2019-01-30T14:38:16.775Z,2.76
2019-01-30T14:42:23.747Z,2.68
2019-01-30T14:46:30.734Z,2.62
2019-01-30T14:50:37.699Z,2.54
2019-01-30T14:54:45.948Z,2.35
2019-01-30T14:58:53.261Z,2.20
2019-01-30T15:03:00.248Z,2.17
2019-01-30T15:07:07.357Z,2.14
2019-01-30T15:11:14.433Z,2.04
2019-01-30T15:15:24.378Z,2.03
2019-01-30T15:19:31.338Z,1.94
2019-01-30T15:23:38.198Z,1.93
2019-01-30T15:27:45.117Z,1.91
2019-01-30T15:31:52.178Z,1.92
2019-01-30T15:35:59.001Z,1.96
2019-01-30T15:40:08.398Z,1.95
2019-01-30T15:44:17.449Z,1.85
2019-01-30T15:48:25.713Z,1.90
2019-01-30T15:52:33.787Z,1.82
2019-01-30T15:56:40.629Z,1.77
2019-01-30T16:01:02.786Z,1.79
2019-01-30T16:05:11.452Z,1.79
2019-01-30T16:09:18.444Z,1.72
2019-01-30T16:13:25.298Z,1.68
2019-01-30T16:17:32.225Z,1.84
2019-01-30T16:21:39.089Z,1.82
2019-01-30T16:25:46.097Z,1.94
2019-01-30T16:29:57.922Z,1.81
2019-01-30T16:34:05.328Z,1.77
2019-01-30T16:38:12.199Z,1.83
2019-01-30T16:42:19.031Z,1.82
2019-01-30T16:46:25.985Z,1.82
2019-01-30T16:50:34.419Z,1.88
2019-01-30T16:54:41.644Z,1.84
2019-01-30T16:58:48.660Z,1.83
2019-01-30T17:02:55.722Z,1.76
2019-01-30T17:07:02.532Z,1.73
2019-01-30T17:11:09.656Z,1.73
2019-01-30T17:15:20.216Z,1.73
2019-01-30T17:19:27.462Z,1.64
2019-01-30T17:23:35.280Z,1.74
2019-01-30T17:27:42.228Z,1.73
2019-01-30T17:31:49.199Z,1.74
2019-01-30T17:35:56.122Z,1.83
2019-01-30T17:40:03.064Z,1.70
2019-01-30T17:44:12.812Z,1.79
2019-01-30T17:48:19.318Z,1.72
2019-01-30T17:52:26.431Z,1.66
2019-01-30T17:56:34.482Z,1.73
2019-01-30T18:00:54.985Z,1.64
2019-01-30T18:05:01.888Z,1.63
2019-01-30T18:09:11.189Z,1.68
2019-01-30T18:13:18.124Z,1.82
2019-01-30T18:17:27.231Z,1.82
2019-01-30T18:21:34.582Z,1.80
2019-01-30T18:25:41.993Z,1.75
2019-01-30T18:29:48.943Z,1.81
2019-01-30T18:33:55.864Z,1.71
2019-01-30T18:38:05.345Z,1.66
2019-01-30T18:42:12.541Z,1.74
2019-01-30T18:46:19.541Z,1.78
2019-01-30T18:50:27.994Z,1.69
2019-01-30T18:54:35.284Z,1.66
2019-01-30T18:58:42.298Z,1.69
2019-01-30T19:02:49.918Z,1.72
2019-01-30T19:06:57.409Z,1.64
2019-01-30T19:11:05.079Z,1.71
2019-01-30T19:15:19.054Z,1.60
2019-01-30T19:19:26.478Z,1.60
2019-01-30T19:23:34.433Z,1.48
2019-01-30T19:27:47.456Z,1.43
2019-01-30T19:32:01.113Z,1.39
2019-01-30T19:36:09.357Z,1.34
2019-01-30T19:40:18.021Z,1.27
2019-01-30T19:44:25.583Z,1.30
2019-01-30T19:48:32.613Z,1.26
2019-01-30T19:52:40.511Z,1.38
2019-01-30T19:56:47.792Z,1.23
2019-01-30T20:00:54.867Z,1.34
2019-01-30T20:05:01.745Z,1.35
2019-01-30T20:09:17.309Z,1.37
2019-01-30T20:13:26.162Z,1.32
2019-01-30T20:17:33.057Z,1.37
2019-01-30T20:21:40.143Z,1.39
2019-01-30T20:25:47.344Z,1.40
2019-01-30T20:29:55.359Z,1.45
2019-01-30T20:34:09.927Z,1.47
2019-01-30T20:38:12.061Z,1.47
2019-01-30T20:42:19.237Z,1.47
2019-01-30T20:46:27.306Z,1.53
2019-01-30T20:50:34.589Z,1.47
2019-01-30T20:54:41.700Z,1.53
2019-01-30T20:58:48.743Z,1.51
2019-01-30T21:02:55.704Z,1.41
2019-01-30T21:07:02.879Z,1.48
2019-01-30T21:11:11.587Z,1.39
2019-01-30T21:15:18.959Z,1.45
2019-01-30T21:19:28.647Z,1.43
2019-01-30T21:23:35.731Z,1.44
2019-01-30T21:27:45.715Z,1.46
2019-01-30T21:31:54.862Z,1.53
2019-01-30T21:36:01.305Z,1.50
2019-01-30T21:40:11.761Z,1.52
2019-01-30T21:44:19.098Z,1.50
2019-01-30T21:48:26.037Z,1.54
2019-01-30T21:52:33.101Z,1.53
2019-01-30T21:56:39.976Z,1.53
2019-01-30T22:00:47.111Z,1.49
2019-01-30T22:04:54.325Z,1.49
2019-01-30T22:09:01.429Z,1.48
2019-01-30T22:13:13.414Z,1.50
2019-01-30T22:17:20.299Z,1.45
2019-01-30T22:21:27.121Z,1.41
2019-01-30T22:25:33.971Z,1.34
2019-01-30T22:29:40.789Z,1.39
2019-01-30T22:33:47.676Z,1.35
2019-01-30T22:37:54.489Z,1.29
2019-01-30T22:42:02.504Z,1.26
2019-01-30T22:46:09.641Z,1.25
2019-01-30T22:50:17.906Z,1.19
2019-01-30T22:54:24.785Z,1.19
2019-01-30T22:58:31.679Z,1.15
2019-01-30T23:02:38.465Z,1.13
2019-01-30T23:07:14.869Z,1.12
2019-01-30T23:12:27.889Z,1.07
2019-01-30T23:17:39.211Z,1.04
2019-01-30T23:22:01.550Z,0.98
2019-01-30T23:27:01.527Z,0.89
2019-01-30T23:31:46.855Z,0.81
2019-01-30T23:37:03.487Z,0.76
2019-01-30T23:42:05.392Z,0.67
2019-01-30T23:46:40.320Z,0.71
2019-01-30T23:51:29.257Z,0.64
2019-01-30T23:56:24.634Z,0.64
